sensor_id;sensor_type;location;lat;lon;timestamp;pressure;altitude;pressure_sealevel;temperature;humidity
28167;BME280;15455;53.376;-6.262;2023-05-16T00:00:33;102426.69;;;7.55;100.00
28167;BME280;15455;53.376;-6.262;2023-05-16T00:03:19;102424.84;;;7.51;100.00
28167;BME280;15455;53.376;-6.262;2023-05-16T00:06:05;102421.06;;;7.43;100.00
28167;BME280;15455;53.376;-6.262;2023-05-16T00:08:51;102421.84;;;7.40;100.00
28167;BME280;15455;53.376;-6.262;2023-05-16T00:11:37;102427.84;;;7.39;100.00
28167;BME280;15455;53.376;-6.262;2023-05-16T00:14:22;102430.22;;;7.33;100.00
28167;BME280;15455;53.376;-6.262;2023-05-16T00:17:10;102433.47;;;7.27;100.00
28167;BME280;15455;53.376;-6.262;2023-05-16T00:19:56;102427.22;;;7.22;100.00
28167;BME280;15455;53.376;-6.262;2023-05-16T00:22:44;102427.34;;;7.25;100.00
28167;BME280;15455;53.376;-6.262;2023-05-16T00:25:30;102431.63;;;7.25;100.00
28167;BME280;15455;53.376;-6.262;2023-05-16T00:28:15;102426.38;;;7.23;100.00
28167;BME280;15455;53.376;-6.262;2023-05-16T00:31:01;102430.63;;;7.21;100.00
28167;BME280;15455;53.376;-6.262;2023-05-16T00:33:47;102435.03;;;7.22;100.00
28167;BME280;15455;53.376;-6.262;2023-05-16T00:36:32;102421.78;;;7.16;100.00
28167;BME280;15455;53.376;-6.262;2023-05-16T00:39:20;102429.16;;;7.05;100.00
28167;BME280;15455;53.376;-6.262;2023-05-16T00:42:05;102425.44;;;6.99;100.00
28167;BME280;15455;53.376;-6.262;2023-05-16T00:44:51;102424.38;;;6.93;100.00
28167;BME280;15455;53.376;-6.262;2023-05-16T00:47:36;102423.41;;;6.91;100.00
28167;BME280;15455;53.376;-6.262;2023-05-16T00:50:23;102425.88;;;6.88;100.00
28167;BME280;15455;53.376;-6.262;2023-05-16T00:53:09;102428.25;;;6.82;100.00
28167;BME280;15455;53.376;-6.262;2023-05-16T00:55:55;102424.50;;;6.75;100.00
28167;BME280;15455;53.376;-6.262;2023-05-16T00:58:41;102429.53;;;6.71;100.00
28167;BME280;15455;53.376;-6.262;2023-05-16T01:01:27;102429.41;;;6.68;100.00
28167;BME280;15455;53.376;-6.262;2023-05-16T01:04:13;102435.28;;;6.64;100.00
28167;BME280;15455;53.376;-6.262;2023-05-16T01:06:59;102431.75;;;6.62;100.00
28167;BME280;15455;53.376;-6.262;2023-05-16T01:09:45;102431.66;;;6.60;100.00
28167;BME280;15455;53.376;-6.262;2023-05-16T01:12:47;102426.41;;;6.58;100.00
28167;BME280;15455;53.376;-6.262;2023-05-16T01:15:52;102425.34;;;6.53;100.00
28167;BME280;15455;53.376;-6.262;2023-05-16T01:22:00;102415.56;;;6.46;100.00
28167;BME280;15455;53.376;-6.262;2023-05-16T01:27:56;102406.63;;;6.39;100.00
28167;BME280;15455;53.376;-6.262;2023-05-16T01:30:43;102413.41;;;6.36;100.00
28167;BME280;15455;53.376;-6.262;2023-05-16T01:33:30;102409.72;;;6.31;100.00
28167;BME280;15455;53.376;-6.262;2023-05-16T01:36:23;102406.75;;;6.21;100.00
28167;BME280;15455;53.376;-6.262;2023-05-16T01:39:14;102412.50;;;6.14;100.00
28167;BME280;15455;53.376;-6.262;2023-05-16T01:42:12;102418.28;;;6.08;100.00
28167;BME280;15455;53.376;-6.262;2023-05-16T01:45:13;102415.44;;;6.02;100.00
28167;BME280;15455;53.376;-6.262;2023-05-16T01:48:07;102417.72;;;5.96;100.00
28167;BME280;15455;53.376;-6.262;2023-05-16T01:50:55;102416.53;;;5.88;100.00
28167;BME280;15455;53.376;-6.262;2023-05-16T01:53:41;102429.88;;;5.78;100.00
28167;BME280;15455;53.376;-6.262;2023-05-16T01:56:30;102422.63;;;5.70;100.00
28167;BME280;15455;53.376;-6.262;2023-05-16T01:59:19;102424.09;;;5.64;100.00
28167;BME280;15455;53.376;-6.262;2023-05-16T02:02:05;102427.22;;;5.56;100.00
28167;BME280;15455;53.376;-6.262;2023-05-16T02:04:51;102426.84;;;5.49;100.00
28167;BME280;15455;53.376;-6.262;2023-05-16T02:07:36;102431.97;;;5.47;100.00
28167;BME280;15455;53.376;-6.262;2023-05-16T02:10:22;102430.88;;;5.42;100.00
28167;BME280;15455;53.376;-6.262;2023-05-16T02:13:08;102436.06;;;5.42;100.00
28167;BME280;15455;53.376;-6.262;2023-05-16T02:15:54;102429.09;;;5.41;100.00
28167;BME280;15455;53.376;-6.262;2023-05-16T02:18:39;102429.91;;;5.40;100.00
28167;BME280;15455;53.376;-6.262;2023-05-16T02:21:25;102435.91;;;5.39;100.00
28167;BME280;15455;53.376;-6.262;2023-05-16T02:24:11;102448.78;;;5.37;100.00
28167;BME280;15455;53.376;-6.262;2023-05-16T02:26:56;102447.75;;;5.34;100.00
28167;BME280;15455;53.376;-6.262;2023-05-16T02:29:42;102444.97;;;5.29;100.00
28167;BME280;15455;53.376;-6.262;2023-05-16T02:32:27;102449.19;;;5.27;100.00
28167;BME280;15455;53.376;-6.262;2023-05-16T02:35:13;102441.19;;;5.22;100.00
28167;BME280;15455;53.376;-6.262;2023-05-16T02:37:58;102437.56;;;5.19;100.00
28167;BME280;15455;53.376;-6.262;2023-05-16T02:40:44;102430.41;;;5.13;100.00
28167;BME280;15455;53.376;-6.262;2023-05-16T02:43:30;102443.22;;;5.10;100.00
28167;BME280;15455;53.376;-6.262;2023-05-16T02:46:27;102437.91;;;5.07;100.00
28167;BME280;15455;53.376;-6.262;2023-05-16T02:49:15;102431.88;;;5.08;100.00
28167;BME280;15455;53.376;-6.262;2023-05-16T02:52:02;102433.44;;;5.04;100.00
28167;BME280;15455;53.376;-6.262;2023-05-16T02:54:48;102432.53;;;5.04;100.00
28167;BME280;15455;53.376;-6.262;2023-05-16T02:57:54;102431.66;;;5.03;100.00
28167;BME280;15455;53.376;-6.262;2023-05-16T03:00:39;102428.81;;;4.97;100.00
28167;BME280;15455;53.376;-6.262;2023-05-16T03:03:26;102433.75;;;4.93;100.00
28167;BME280;15455;53.376;-6.262;2023-05-16T03:06:12;102430.06;;;4.87;100.00
28167;BME280;15455;53.376;-6.262;2023-05-16T03:08:57;102437.66;;;4.84;100.00
28167;BME280;15455;53.376;-6.262;2023-05-16T03:11:43;102439.19;;;4.81;100.00
28167;BME280;15455;53.376;-6.262;2023-05-16T03:14:29;102445.22;;;4.80;100.00
28167;BME280;15455;53.376;-6.262;2023-05-16T03:17:14;102447.66;;;4.77;100.00
28167;BME280;15455;53.376;-6.262;2023-05-16T03:20:00;102449.19;;;4.73;100.00
28167;BME280;15455;53.376;-6.262;2023-05-16T03:22:45;102451.63;;;4.70;100.00
28167;BME280;15455;53.376;-6.262;2023-05-16T03:25:31;102454.00;;;4.65;100.00
28167;BME280;15455;53.376;-6.262;2023-05-16T03:28:16;102450.28;;;4.60;100.00
28167;BME280;15455;53.376;-6.262;2023-05-16T03:31:02;102455.22;;;4.56;100.00
28167;BME280;15455;53.376;-6.262;2023-05-16T03:33:47;102458.47;;;4.51;100.00
28167;BME280;15455;53.376;-6.262;2023-05-16T03:36:33;102463.56;;;4.50;100.00
28167;BME280;15455;53.376;-6.262;2023-05-16T03:39:20;102451.44;;;4.49;100.00
28167;BME280;15455;53.376;-6.262;2023-05-16T03:42:05;102453.94;;;4.47;100.00
28167;BME280;15455;53.376;-6.262;2023-05-16T03:44:51;102451.28;;;4.46;100.00
28167;BME280;15455;53.376;-6.262;2023-05-16T03:47:37;102464.94;;;4.43;100.00
28167;BME280;15455;53.376;-6.262;2023-05-16T03:50:22;102449.22;;;4.39;100.00
28167;BME280;15455;53.376;-6.262;2023-05-16T03:53:08;102456.81;;;4.35;100.00
28167;BME280;15455;53.376;-6.262;2023-05-16T03:55:54;102457.53;;;4.33;100.00
28167;BME280;15455;53.376;-6.262;2023-05-16T03:58:39;102458.38;;;4.32;100.00
28167;BME280;15455;53.376;-6.262;2023-05-16T04:01:25;102456.50;;;4.29;100.00
28167;BME280;15455;53.376;-6.262;2023-05-16T04:04:11;102465.88;;;4.27;100.00
28167;BME280;15455;53.376;-6.262;2023-05-16T04:06:56;102462.25;;;4.24;100.00
28167;BME280;15455;53.376;-6.262;2023-05-16T04:09:42;102464.69;;;4.21;100.00
28167;BME280;15455;53.376;-6.262;2023-05-16T04:12:27;102467.91;;;4.16;100.00
28167;BME280;15455;53.376;-6.262;2023-05-16T04:15:13;102464.44;;;4.16;100.00
28167;BME280;15455;53.376;-6.262;2023-05-16T04:17:58;102467.75;;;4.13;100.00
28167;BME280;15455;53.376;-6.262;2023-05-16T04:20:44;102465.09;;;4.12;100.00
28167;BME280;15455;53.376;-6.262;2023-05-16T04:23:31;102461.59;;;4.11;100.00
28167;BME280;15455;53.376;-6.262;2023-05-16T04:26:17;102460.72;;;4.11;100.00
28167;BME280;15455;53.376;-6.262;2023-05-16T04:29:03;102467.41;;;4.07;100.00
28167;BME280;15455;53.376;-6.262;2023-05-16T04:31:48;102468.16;;;4.05;100.00
28167;BME280;15455;53.376;-6.262;2023-05-16T04:34:34;102471.56;;;4.04;100.00
28167;BME280;15455;53.376;-6.262;2023-05-16T04:37:24;102468.00;;;4.02;100.00
28167;BME280;15455;53.376;-6.262;2023-05-16T04:40:10;102476.66;;;4.02;100.00
28167;BME280;15455;53.376;-6.262;2023-05-16T04:42:56;102478.50;;;4.05;100.00
28167;BME280;15455;53.376;-6.262;2023-05-16T04:45:42;102476.88;;;4.07;100.00
28167;BME280;15455;53.376;-6.262;2023-05-16T04:48:27;102480.44;;;4.09;100.00
28167;BME280;15455;53.376;-6.262;2023-05-16T04:51:13;102477.19;;;4.13;100.00
28167;BME280;15455;53.376;-6.262;2023-05-16T04:53:59;102482.53;;;4.16;100.00
28167;BME280;15455;53.376;-6.262;2023-05-16T04:56:45;102494.72;;;4.18;100.00
28167;BME280;15455;53.376;-6.262;2023-05-16T04:59:30;102492.28;;;4.22;100.00
28167;BME280;15455;53.376;-6.262;2023-05-16T05:02:16;102499.38;;;4.26;100.00
28167;BME280;15455;53.376;-6.262;2023-05-16T05:05:02;102491.78;;;4.29;100.00
28167;BME280;15455;53.376;-6.262;2023-05-16T05:07:48;102498.03;;;4.32;100.00
28167;BME280;15455;53.376;-6.262;2023-05-16T05:10:33;102493.88;;;4.36;100.00
28167;BME280;15455;53.376;-6.262;2023-05-16T05:13:18;102499.22;;;4.39;100.00
28167;BME280;15455;53.376;-6.262;2023-05-16T05:16:04;102500.41;;;4.46;100.00
28167;BME280;15455;53.376;-6.262;2023-05-16T05:18:50;102495.47;;;4.50;100.00
28167;BME280;15455;53.376;-6.262;2023-05-16T05:21:36;102494.00;;;4.56;100.00
28167;BME280;15455;53.376;-6.262;2023-05-16T05:24:21;102504.81;;;4.65;100.00
28167;BME280;15455;53.376;-6.262;2023-05-16T05:27:07;102511.19;;;4.72;100.00
28167;BME280;15455;53.376;-6.262;2023-05-16T05:29:52;102511.47;;;4.78;100.00
28167;BME280;15455;53.376;-6.262;2023-05-16T05:32:38;102513.56;;;4.85;100.00
28167;BME280;15455;53.376;-6.262;2023-05-16T05:35:23;102510.41;;;4.91;100.00
28167;BME280;15455;53.376;-6.262;2023-05-16T05:38:09;102518.63;;;5.00;100.00
28167;BME280;15455;53.376;-6.262;2023-05-16T05:40:54;102512.88;;;5.06;100.00
28167;BME280;15455;53.376;-6.262;2023-05-16T05:43:39;102516.69;;;5.14;100.00
28167;BME280;15455;53.376;-6.262;2023-05-16T05:46:25;102515.22;;;5.19;100.00
28167;BME280;15455;53.376;-6.262;2023-05-16T05:49:11;102517.38;;;5.28;100.00
28167;BME280;15455;53.376;-6.262;2023-05-16T05:51:57;102524.63;;;5.35;100.00
28167;BME280;15455;53.376;-6.262;2023-05-16T05:54:42;102523.19;;;5.42;100.00
28167;BME280;15455;53.376;-6.262;2023-05-16T05:57:28;102521.78;;;5.48;100.00
28167;BME280;15455;53.376;-6.262;2023-05-16T06:00:14;102524.66;;;5.54;100.00
28167;BME280;15455;53.376;-6.262;2023-05-16T06:02:59;102518.94;;;5.62;100.00
28167;BME280;15455;53.376;-6.262;2023-05-16T06:05:45;102518.34;;;5.67;100.00
28167;BME280;15455;53.376;-6.262;2023-05-16T06:08:30;102519.47;;;5.72;100.00
28167;BME280;15455;53.376;-6.262;2023-05-16T06:11:15;102535.41;;;5.82;100.00
28167;BME280;15455;53.376;-6.262;2023-05-16T06:14:01;102531.28;;;5.85;100.00
28167;BME280;15455;53.376;-6.262;2023-05-16T06:16:46;102535.91;;;5.93;100.00
28167;BME280;15455;53.376;-6.262;2023-05-16T06:19:32;102531.84;;;5.98;100.00
28167;BME280;15455;53.376;-6.262;2023-05-16T06:22:17;102536.56;;;6.06;100.00
28167;BME280;15455;53.376;-6.262;2023-05-16T06:25:03;102535.94;;;6.12;100.00
28167;BME280;15455;53.376;-6.262;2023-05-16T06:27:49;102539.78;;;6.20;100.00
28167;BME280;15455;53.376;-6.262;2023-05-16T06:30:35;102549.53;;;6.26;100.00
28167;BME280;15455;53.376;-6.262;2023-05-16T06:33:20;102544.63;;;6.32;100.00
28167;BME280;15455;53.376;-6.262;2023-05-16T06:36:06;102548.44;;;6.40;100.00
28167;BME280;15455;53.376;-6.262;2023-05-16T06:38:52;102555.66;;;6.48;100.00
28167;BME280;15455;53.376;-6.262;2023-05-16T06:41:37;102555.31;;;6.59;100.00
28167;BME280;15455;53.376;-6.262;2023-05-16T06:44:23;102559.06;;;6.66;100.00
28167;BME280;15455;53.376;-6.262;2023-05-16T06:47:08;102561.97;;;6.74;100.00
28167;BME280;15455;53.376;-6.262;2023-05-16T06:49:54;102553.63;;;6.81;100.00
28167;BME280;15455;53.376;-6.262;2023-05-16T06:52:39;102554.09;;;6.92;100.00
28167;BME280;15455;53.376;-6.262;2023-05-16T06:55:26;102557.88;;;7.00;100.00
28167;BME280;15455;53.376;-6.262;2023-05-16T06:58:12;102550.53;;;7.11;100.00
28167;BME280;15455;53.376;-6.262;2023-05-16T07:00:58;102561.53;;;7.26;100.00
28167;BME280;15455;53.376;-6.262;2023-05-16T07:03:43;102556.03;;;7.40;100.00
28167;BME280;15455;53.376;-6.262;2023-05-16T07:06:29;102561.00;;;7.56;100.00
28167;BME280;15455;53.376;-6.262;2023-05-16T07:09:15;102555.22;;;7.63;100.00
28167;BME280;15455;53.376;-6.262;2023-05-16T07:12:00;102549.47;;;7.72;100.00
28167;BME280;15455;53.376;-6.262;2023-05-16T07:14:46;102556.75;;;7.81;100.00
28167;BME280;15455;53.376;-6.262;2023-05-16T07:17:32;102558.91;;;7.93;100.00
28167;BME280;15455;53.376;-6.262;2023-05-16T07:20:17;102553.91;;;7.97;100.00
28167;BME280;15455;53.376;-6.262;2023-05-16T07:23:02;102558.69;;;8.09;100.00
28167;BME280;15455;53.376;-6.262;2023-05-16T07:25:48;102566.81;;;8.18;100.00
28167;BME280;15455;53.376;-6.262;2023-05-16T07:28:33;102566.09;;;8.23;100.00
28167;BME280;15455;53.376;-6.262;2023-05-16T07:31:22;102563.00;;;8.33;100.00
28167;BME280;15455;53.376;-6.262;2023-05-16T07:34:09;102563.34;;;8.42;100.00
28167;BME280;15455;53.376;-6.262;2023-05-16T07:36:55;102548.84;;;8.49;100.00
28167;BME280;15455;53.376;-6.262;2023-05-16T07:39:41;102552.59;;;8.57;100.00
28167;BME280;15455;53.376;-6.262;2023-05-16T07:42:27;102552.97;;;8.68;100.00
28167;BME280;15455;53.376;-6.262;2023-05-16T07:45:12;102555.03;;;8.77;100.00
28167;BME280;15455;53.376;-6.262;2023-05-16T07:47:58;102549.06;;;8.81;100.00
28167;BME280;15455;53.376;-6.262;2023-05-16T07:50:44;102550.16;;;8.88;100.00
28167;BME280;15455;53.376;-6.262;2023-05-16T07:53:30;102552.19;;;8.96;100.00
28167;BME280;15455;53.376;-6.262;2023-05-16T07:56:15;102551.63;;;9.05;100.00
28167;BME280;15455;53.376;-6.262;2023-05-16T07:59:01;102549.25;;;9.13;100.00
28167;BME280;15455;53.376;-6.262;2023-05-16T08:01:47;102550.38;;;9.21;100.00
28167;BME280;15455;53.376;-6.262;2023-05-16T08:04:32;102547.25;;;9.31;100.00
28167;BME280;15455;53.376;-6.262;2023-05-16T08:07:18;102540.59;;;9.41;100.00
28167;BME280;15455;53.376;-6.262;2023-05-16T08:10:03;102543.56;;;9.52;100.00
28167;BME280;15455;53.376;-6.262;2023-05-16T08:12:49;102543.84;;;9.61;100.00
28167;BME280;15455;53.376;-6.262;2023-05-16T08:15:35;102537.28;;;9.74;100.00
28167;BME280;15455;53.376;-6.262;2023-05-16T08:18:20;102548.00;;;9.85;100.00
28167;BME280;15455;53.376;-6.262;2023-05-16T08:21:07;102535.25;;;9.94;100.00
28167;BME280;15455;53.376;-6.262;2023-05-16T08:23:56;102537.28;;;10.04;100.00
28167;BME280;15455;53.376;-6.262;2023-05-16T08:26:41;102535.06;;;10.18;100.00
28167;BME280;15455;53.376;-6.262;2023-05-16T08:29:27;102534.72;;;10.36;100.00
28167;BME280;15455;53.376;-6.262;2023-05-16T08:32:12;102537.56;;;10.46;100.00
28167;BME280;15455;53.376;-6.262;2023-05-16T08:34:58;102535.31;;;10.59;100.00
28167;BME280;15455;53.376;-6.262;2023-05-16T08:37:44;102534.59;;;10.65;100.00
28167;BME280;15455;53.376;-6.262;2023-05-16T08:40:30;102534.03;;;10.77;100.00
28167;BME280;15455;53.376;-6.262;2023-05-16T08:43:15;102531.66;;;10.86;100.00
28167;BME280;15455;53.376;-6.262;2023-05-16T08:46:01;102531.81;;;10.92;100.00
28167;BME280;15455;53.376;-6.262;2023-05-16T08:48:51;102531.88;;;10.95;100.00
28167;BME280;15455;53.376;-6.262;2023-05-16T08:51:37;102530.34;;;11.04;100.00
28167;BME280;15455;53.376;-6.262;2023-05-16T08:54:23;102518.22;;;11.07;100.00
28167;BME280;15455;53.376;-6.262;2023-05-16T08:57:12;102527.19;;;11.17;100.00
28167;BME280;15455;53.376;-6.262;2023-05-16T08:59:58;102531.69;;;11.23;100.00
28167;BME280;15455;53.376;-6.262;2023-05-16T09:02:44;102534.53;;;11.34;100.00
28167;BME280;15455;53.376;-6.262;2023-05-16T09:05:30;102521.63;;;11.40;100.00
28167;BME280;15455;53.376;-6.262;2023-05-16T09:08:17;102527.00;;;11.47;100.00
28167;BME280;15455;53.376;-6.262;2023-05-16T09:11:02;102516.69;;;11.54;100.00
28167;BME280;15455;53.376;-6.262;2023-05-16T09:13:48;102521.91;;;11.54;100.00
28167;BME280;15455;53.376;-6.262;2023-05-16T09:16:34;102519.47;;;11.61;100.00
28167;BME280;15455;53.376;-6.262;2023-05-16T09:19:21;102523.88;;;11.64;100.00
28167;BME280;15455;53.376;-6.262;2023-05-16T09:22:09;102511.03;;;11.75;100.00
28167;BME280;15455;53.376;-6.262;2023-05-16T09:24:58;102525.28;;;11.89;100.00
28167;BME280;15455;53.376;-6.262;2023-05-16T09:27:48;102517.69;;;12.00;100.00
28167;BME280;15455;53.376;-6.262;2023-05-16T09:30:36;102523.59;;;11.93;100.00
28167;BME280;15455;53.376;-6.262;2023-05-16T09:33:26;102512.38;;;11.97;100.00
28167;BME280;15455;53.376;-6.262;2023-05-16T09:36:12;102523.16;;;12.11;100.00
28167;BME280;15455;53.376;-6.262;2023-05-16T09:38:59;102524.88;;;12.10;100.00
28167;BME280;15455;53.376;-6.262;2023-05-16T09:41:50;102532.16;;;12.25;100.00
28167;BME280;15455;53.376;-6.262;2023-05-16T09:44:36;102539.47;;;12.43;100.00
28167;BME280;15455;53.376;-6.262;2023-05-16T09:47:22;102536.06;;;12.49;100.00
28167;BME280;15455;53.376;-6.262;2023-05-16T09:50:08;102531.53;;;12.40;100.00
28167;BME280;15455;53.376;-6.262;2023-05-16T09:52:54;102526.09;;;12.28;100.00
28167;BME280;15455;53.376;-6.262;2023-05-16T09:55:40;102527.69;;;12.20;100.00
28167;BME280;15455;53.376;-6.262;2023-05-16T09:58:37;102539.94;;;12.22;100.00
28167;BME280;15455;53.376;-6.262;2023-05-16T10:01:22;102525.28;;;12.32;100.00
28167;BME280;15455;53.376;-6.262;2023-05-16T10:04:09;102530.06;;;12.55;100.00
28167;BME280;15455;53.376;-6.262;2023-05-16T10:07:03;102527.72;;;12.68;100.00
28167;BME280;15455;53.376;-6.262;2023-05-16T10:09:50;102530.63;;;12.85;100.00
28167;BME280;15455;53.376;-6.262;2023-05-16T10:12:37;102527.34;;;12.99;100.00
28167;BME280;15455;53.376;-6.262;2023-05-16T10:15:23;102527.34;;;12.99;100.00
28167;BME280;15455;53.376;-6.262;2023-05-16T10:18:10;102527.59;;;13.14;100.00
28167;BME280;15455;53.376;-6.262;2023-05-16T10:21:07;102532.13;;;13.26;100.00
28167;BME280;15455;53.376;-6.262;2023-05-16T10:23:58;102523.50;;;13.33;100.00
28167;BME280;15455;53.376;-6.262;2023-05-16T10:26:47;102530.78;;;13.51;100.00
28167;BME280;15455;53.376;-6.262;2023-05-16T10:29:33;102519.75;;;13.79;100.00
28167;BME280;15455;53.376;-6.262;2023-05-16T10:32:38;102534.75;;;13.87;100.00
28167;BME280;15455;53.376;-6.262;2023-05-16T10:35:27;102536.38;;;13.79;100.00
28167;BME280;15455;53.376;-6.262;2023-05-16T10:38:17;102538.03;;;13.69;100.00
28167;BME280;15455;53.376;-6.262;2023-05-16T10:41:04;102534.66;;;13.80;100.00
28167;BME280;15455;53.376;-6.262;2023-05-16T10:43:58;102526.06;;;13.93;100.00
28167;BME280;15455;53.376;-6.262;2023-05-16T10:46:46;102535.75;;;13.99;100.00
28167;BME280;15455;53.376;-6.262;2023-05-16T10:49:31;102530.38;;;13.88;100.00
28167;BME280;15455;53.376;-6.262;2023-05-16T10:52:17;102533.94;;;13.92;100.00
28167;BME280;15455;53.376;-6.262;2023-05-16T10:55:03;102531.31;;;13.92;100.00
28167;BME280;15455;53.376;-6.262;2023-05-16T10:57:51;102534.03;;;14.01;100.00
28167;BME280;15455;53.376;-6.262;2023-05-16T11:00:38;102536.63;;;13.99;100.00
28167;BME280;15455;53.376;-6.262;2023-05-16T11:03:24;102535.94;;;14.11;100.00
28167;BME280;15455;53.376;-6.262;2023-05-16T11:06:12;102542.06;;;14.13;100.00
28167;BME280;15455;53.376;-6.262;2023-05-16T11:14:39;102530.47;;;13.94;100.00
28167;BME280;15455;53.376;-6.262;2023-05-16T11:17:38;102526.28;;;14.10;100.00
28167;BME280;15455;53.376;-6.262;2023-05-16T11:20:29;102520.25;;;14.19;100.00
28167;BME280;15455;53.376;-6.262;2023-05-16T11:26:02;102513.03;;;14.01;100.00
28167;BME280;15455;53.376;-6.262;2023-05-16T11:28:50;102508.44;;;13.81;100.00
28167;BME280;15455;53.376;-6.262;2023-05-16T11:31:37;102503.16;;;13.80;100.00
28167;BME280;15455;53.376;-6.262;2023-05-16T11:34:22;102503.56;;;14.15;100.00
28167;BME280;15455;53.376;-6.262;2023-05-16T11:37:09;102497.97;;;14.66;100.00
28167;BME280;15455;53.376;-6.262;2023-05-16T11:40:00;102501.59;;;14.82;100.00
28167;BME280;15455;53.376;-6.262;2023-05-16T11:42:46;102506.91;;;14.86;100.00
28167;BME280;15455;53.376;-6.262;2023-05-16T11:45:32;102507.66;;;14.71;100.00
28167;BME280;15455;53.376;-6.262;2023-05-16T11:48:19;102515.47;;;14.64;100.00
28167;BME280;15455;53.376;-6.262;2023-05-16T11:51:19;102512.25;;;14.99;100.00
28167;BME280;15455;53.376;-6.262;2023-05-16T11:54:06;102508.78;;;15.03;100.00
28167;BME280;15455;53.376;-6.262;2023-05-16T11:56:53;102511.28;;;14.90;100.00
28167;BME280;15455;53.376;-6.262;2023-05-16T11:59:39;102518.31;;;14.91;100.00
28167;BME280;15455;53.376;-6.262;2023-05-16T12:02:27;102505.16;;;14.87;100.00
28167;BME280;15455;53.376;-6.262;2023-05-16T12:05:15;102514.84;;;14.96;100.00
28167;BME280;15455;53.376;-6.262;2023-05-16T12:08:01;102509.75;;;15.19;100.00
28167;BME280;15455;53.376;-6.262;2023-05-16T12:10:52;102510.69;;;15.25;100.00
28167;BME280;15455;53.376;-6.262;2023-05-16T12:13:40;102513.28;;;15.21;100.00
28167;BME280;15455;53.376;-6.262;2023-05-16T12:16:26;102509.69;;;15.08;100.00
28167;BME280;15455;53.376;-6.262;2023-05-16T12:19:11;102506.97;;;14.96;100.00
28167;BME280;15455;53.376;-6.262;2023-05-16T12:21:58;102510.41;;;14.85;100.00
28167;BME280;15455;53.376;-6.262;2023-05-16T12:24:44;102511.22;;;14.78;100.00
28167;BME280;15455;53.376;-6.262;2023-05-16T12:27:31;102500.56;;;14.64;100.00
28167;BME280;15455;53.376;-6.262;2023-05-16T12:30:17;102505.94;;;14.76;100.00
28167;BME280;15455;53.376;-6.262;2023-05-16T12:33:10;102494.84;;;15.16;100.00
28167;BME280;15455;53.376;-6.262;2023-05-16T12:35:57;102502.13;;;15.65;100.00
28167;BME280;15455;53.376;-6.262;2023-05-16T12:38:45;102500.59;;;16.21;100.00
28167;BME280;15455;53.376;-6.262;2023-05-16T12:41:31;102494.41;;;16.02;100.00
28167;BME280;15455;53.376;-6.262;2023-05-16T12:44:18;102511.19;;;16.46;100.00
28167;BME280;15455;53.376;-6.262;2023-05-16T12:47:10;102499.78;;;17.09;100.00
28167;BME280;15455;53.376;-6.262;2023-05-16T12:49:56;102491.81;;;17.26;100.00
28167;BME280;15455;53.376;-6.262;2023-05-16T12:52:58;102507.72;;;17.09;100.00
28167;BME280;15455;53.376;-6.262;2023-05-16T12:55:44;102487.44;;;17.31;100.00
28167;BME280;15455;53.376;-6.262;2023-05-16T12:58:30;102499.75;;;17.35;100.00
28167;BME280;15455;53.376;-6.262;2023-05-16T13:01:15;102491.00;;;16.91;100.00
28167;BME280;15455;53.376;-6.262;2023-05-16T13:04:01;102496.25;;;16.54;100.00
28167;BME280;15455;53.376;-6.262;2023-05-16T13:06:49;102486.59;;;16.76;100.00
28167;BME280;15455;53.376;-6.262;2023-05-16T13:09:37;102487.50;;;16.88;100.00
28167;BME280;15455;53.376;-6.262;2023-05-16T13:12:22;102490.13;;;16.63;100.00
28167;BME280;15455;53.376;-6.262;2023-05-16T13:15:11;102483.97;;;16.73;100.00
28167;BME280;15455;53.376;-6.262;2023-05-16T13:17:56;102479.56;;;17.08;100.00
28167;BME280;15455;53.376;-6.262;2023-05-16T13:20:42;102489.06;;;17.66;100.00
28167;BME280;15455;53.376;-6.262;2023-05-16T13:23:29;102495.03;;;18.13;100.00
28167;BME280;15455;53.376;-6.262;2023-05-16T13:26:14;102499.50;;;17.95;100.00
28167;BME280;15455;53.376;-6.262;2023-05-16T13:29:00;102492.63;;;17.59;100.00
28167;BME280;15455;53.376;-6.262;2023-05-16T13:31:46;102490.97;;;17.08;100.00
28167;BME280;15455;53.376;-6.262;2023-05-16T13:34:32;102495.38;;;16.63;100.00
28167;BME280;15455;53.376;-6.262;2023-05-16T13:37:18;102498.03;;;16.63;100.00
28167;BME280;15455;53.376;-6.262;2023-05-16T13:40:06;102503.28;;;16.67;100.00
28167;BME280;15455;53.376;-6.262;2023-05-16T13:42:55;102507.66;;;16.61;100.00
28167;BME280;15455;53.376;-6.262;2023-05-16T13:45:41;102503.31;;;16.58;100.00
28167;BME280;15455;53.376;-6.262;2023-05-16T13:48:28;102507.66;;;16.62;100.00
28167;BME280;15455;53.376;-6.262;2023-05-16T13:51:14;102507.66;;;16.61;100.00
28167;BME280;15455;53.376;-6.262;2023-05-16T13:53:59;102504.19;;;16.73;100.00
28167;BME280;15455;53.376;-6.262;2023-05-16T13:56:45;102498.03;;;17.03;100.00
28167;BME280;15455;53.376;-6.262;2023-05-16T13:59:30;102501.53;;;17.11;100.00
28167;BME280;15455;53.376;-6.262;2023-05-16T14:02:36;102499.75;;;16.79;100.00
28167;BME280;15455;53.376;-6.262;2023-05-16T14:05:21;102506.81;;;16.79;100.00
28167;BME280;15455;53.376;-6.262;2023-05-16T14:08:07;102512.97;;;16.75;100.00
28167;BME280;15455;53.376;-6.262;2023-05-16T14:10:52;102505.06;;;16.87;100.00
28167;BME280;15455;53.376;-6.262;2023-05-16T14:13:38;102518.25;;;17.10;100.00
28167;BME280;15455;53.376;-6.262;2023-05-16T14:16:26;102505.91;;;17.17;100.00
28167;BME280;15455;53.376;-6.262;2023-05-16T14:19:13;102504.19;;;17.04;100.00
28167;BME280;15455;53.376;-6.262;2023-05-16T14:22:01;102498.00;;;17.17;100.00
28167;BME280;15455;53.376;-6.262;2023-05-16T14:24:47;102497.09;;;17.33;100.00
28167;BME280;15455;53.376;-6.262;2023-05-16T14:27:32;102494.41;;;17.44;100.00
28167;BME280;15455;53.376;-6.262;2023-05-16T14:30:18;102490.56;;;18.22;100.00